createdAt,value
2022-12-05T00:00:09.443Z,1.14
2022-12-05T00:01:26.548Z,0.97
2022-12-05T00:02:43.484Z,1.12
2022-12-05T00:04:00.447Z,0.82
2022-12-05T00:05:17.373Z,0.92
2022-12-05T00:06:34.454Z,2.6
2022-12-05T00:07:51.411Z,1.2
2022-12-05T00:09:08.393Z,1.41
2022-12-05T00:10:25.381Z,1.42
2022-12-05T00:11:42.794Z,2.1
2022-12-05T00:12:59.478Z,2.22
2022-12-05T00:14:16.394Z,2.57
2022-12-05T00:15:33.407Z,2.21
2022-12-05T00:16:50.461Z,2.04
2022-12-05T00:18:08.103Z,1.27
2022-12-05T00:19:25.418Z,1.15
2022-12-05T00:20:42.395Z,0.78
2022-12-05T00:21:59.442Z,1.29
2022-12-05T00:23:16.443Z,1.59
2022-12-05T00:24:33.404Z,1.88
2022-12-05T00:25:50.490Z,1.7
2022-12-05T00:27:07.417Z,1.91
2022-12-05T00:28:24.473Z,1.32
2022-12-05T00:29:41.383Z,1.54
2022-12-05T00:30:58.463Z,1.68
2022-12-05T00:32:15.421Z,0.98
2022-12-05T00:33:32.423Z,0.89
2022-12-05T00:34:49.421Z,1.78
2022-12-05T00:36:06.400Z,2.39
2022-12-05T00:37:23.434Z,1.26
2022-12-05T00:38:40.467Z,0.44
2022-12-05T00:39:57.802Z,0.88
2022-12-05T00:41:14.421Z,1.88
2022-12-05T00:42:31.404Z,1.09
2022-12-05T00:43:48.513Z,1.48
2022-12-05T00:45:05.478Z,1.07
2022-12-05T00:46:22.450Z,1.3
2022-12-05T00:47:39.406Z,1.47
2022-12-05T00:48:56.457Z,1.67
2022-12-05T00:50:13.441Z,0.42
2022-12-05T00:51:30.430Z,0.89
2022-12-05T00:52:47.472Z,1.18
2022-12-05T00:54:04.475Z,1.14
2022-12-05T00:55:21.412Z,0.84
2022-12-05T00:56:38.440Z,2.51
2022-12-05T00:57:55.431Z,1.51
2022-12-05T00:59:12.464Z,1.32
2022-12-05T01:00:29.458Z,1.49
2022-12-05T01:01:46.558Z,1.07
2022-12-05T01:03:04.549Z,1.14
2022-12-05T01:04:21.469Z,0.94
2022-12-05T01:05:38.442Z,0.71
2022-12-05T01:06:55.452Z,1.04
2022-12-05T01:08:12.548Z,1.38
2022-12-05T01:09:29.463Z,0.87
2022-12-05T01:10:46.450Z,2.35
2022-12-05T01:12:03.704Z,1.93
2022-12-05T01:13:20.451Z,0.98
2022-12-05T01:14:37.485Z,1.28
2022-12-05T01:15:54.455Z,2.14
2022-12-05T01:17:11.513Z,1.18
2022-12-05T01:18:28.450Z,0.86
2022-12-05T01:19:45.492Z,1.05
2022-12-05T01:21:02.467Z,2.67
2022-12-05T01:22:19.473Z,1.3
2022-12-05T01:23:36.484Z,0.99
2022-12-05T01:24:53.534Z,1.75
2022-12-05T01:26:10.484Z,1.72
2022-12-05T01:27:27.488Z,2.01
2022-12-05T01:28:44.528Z,1.19
2022-12-05T01:30:01.600Z,1.16
2022-12-05T01:31:18.577Z,1.77
2022-12-05T01:32:35.462Z,1.31
2022-12-05T01:33:52.476Z,0.91
2022-12-05T01:35:09.514Z,1.3
2022-12-05T01:36:26.487Z,1.2
2022-12-05T01:37:43.494Z,0.95
2022-12-05T01:39:00.504Z,1.21
2022-12-05T01:40:17.510Z,0.75
2022-12-05T01:41:34.519Z,1.01
2022-12-05T01:42:51.477Z,0.94
2022-12-05T01:44:09.624Z,1.42
2022-12-05T01:45:26.485Z,1.47
2022-12-05T01:46:43.550Z,0.89
2022-12-05T01:48:00.482Z,1.49
2022-12-05T01:49:17.536Z,2.12
2022-12-05T01:50:34.511Z,0.89
2022-12-05T01:51:51.495Z,1.06
2022-12-05T01:53:08.500Z,1.02
2022-12-05T01:54:25.578Z,0.84
2022-12-05T01:55:42.501Z,1.41
2022-12-05T01:56:59.516Z,1.43
2022-12-05T01:58:16.490Z,1.44
2022-12-05T01:59:33.586Z,1.43
2022-12-05T02:00:51.466Z,0.92
2022-12-05T02:02:08.532Z,1.12
2022-12-05T02:03:25.525Z,0.8
2022-12-05T02:04:42.552Z,0.94
2022-12-05T02:05:59.527Z,1.14
2022-12-05T02:07:16.512Z,1.43
2022-12-05T02:08:33.555Z,1.05
2022-12-05T02:09:50.582Z,0.91
2022-12-05T02:11:07.533Z,1.78
2022-12-05T02:12:24.549Z,0.9
2022-12-05T02:13:41.560Z,1.36
2022-12-05T02:14:58.518Z,1.57
2022-12-05T02:16:15.631Z,2.08
2022-12-05T02:17:32.525Z,2.09
2022-12-05T02:18:49.532Z,1.58
2022-12-05T02:20:06.602Z,1.73
2022-12-05T02:21:23.592Z,1.28
2022-12-05T02:22:40.553Z,1.52
2022-12-05T02:23:57.599Z,1.67
2022-12-05T02:25:14.568Z,1.45
2022-12-05T02:26:31.575Z,1.26
2022-12-05T02:27:48.610Z,1.01
2022-12-05T02:29:05.568Z,1.07
2022-12-05T02:30:22.665Z,0.79
2022-12-05T02:31:39.607Z,1.06
2022-12-05T02:32:56.556Z,1.55
2022-12-05T02:34:13.546Z,1.04
2022-12-05T02:35:30.591Z,1.02
2022-12-05T02:36:48.088Z,1.11
2022-12-05T02:38:04.553Z,1.52
2022-12-05T02:39:21.569Z,1.28
2022-12-05T02:40:38.589Z,1.54
2022-12-05T02:41:55.593Z,0.72
2022-12-05T02:43:12.576Z,0.57
2022-12-05T02:44:29.547Z,1.5
2022-12-05T02:45:47.004Z,0.97
2022-12-05T02:47:03.559Z,1.4
2022-12-05T02:48:21.682Z,1.35
2022-12-05T02:49:38.574Z,1.13
2022-12-05T02:50:55.596Z,1.38
2022-12-05T02:52:12.564Z,1.17
2022-12-05T02:53:29.712Z,0.91
2022-12-05T02:54:46.577Z,1.19
2022-12-05T02:56:03.668Z,2.06
2022-12-05T02:57:20.579Z,0.87
2022-12-05T02:58:37.591Z,1.3
2022-12-05T02:59:54.688Z,1.01
2022-12-05T03:01:11.677Z,1.17
2022-12-05T03:02:28.595Z,1.77
2022-12-05T03:03:45.647Z,1.33
2022-12-05T03:05:02.757Z,1.43
2022-12-05T03:06:19.607Z,1.59
2022-12-05T03:07:36.650Z,1.53
2022-12-05T03:08:53.607Z,1.1
2022-12-05T03:10:10.590Z,0.89
2022-12-05T03:11:27.629Z,1.5
2022-12-05T03:12:44.635Z,1.38
2022-12-05T03:14:01.659Z,0.92
2022-12-05T03:15:18.601Z,1.05
2022-12-05T03:16:35.883Z,1.05
2022-12-05T03:17:52.670Z,0.96
2022-12-05T03:19:09.641Z,1.27
2022-12-05T03:20:26.611Z,1.8
2022-12-05T03:21:43.683Z,1.03
2022-12-05T03:23:00.634Z,1.31
2022-12-05T03:24:17.662Z,1.08
2022-12-05T03:25:34.641Z,1.45
2022-12-05T03:26:52.536Z,1.56
2022-12-05T03:28:09.621Z,1.05
2022-12-05T03:29:26.662Z,1.21
2022-12-05T03:30:43.696Z,1.1
2022-12-05T03:32:00.701Z,1.45
2022-12-05T03:33:17.615Z,1.05
2022-12-05T03:34:34.755Z,0.66
2022-12-05T03:35:51.645Z,0.65
2022-12-05T03:37:08.635Z,0.79
2022-12-05T03:38:25.667Z,0.75
2022-12-05T03:39:42.674Z,1.19
2022-12-05T03:40:59.654Z,0.94
2022-12-05T03:42:16.722Z,1.14
2022-12-05T03:43:33.692Z,1.39
2022-12-05T03:44:50.710Z,1.29
2022-12-05T03:46:07.969Z,1.38
2022-12-05T03:47:24.656Z,1.11
2022-12-05T03:48:41.660Z,1.76
2022-12-05T03:49:58.866Z,1.19
2022-12-05T03:51:15.635Z,1
2022-12-05T03:52:41.531Z,1.34
2022-12-05T03:53:49.733Z,1.21
2022-12-05T03:55:06.698Z,1.15
2022-12-05T03:56:23.696Z,1.75
2022-12-05T03:57:40.687Z,1.97
2022-12-05T03:58:57.705Z,1.11
2022-12-05T04:00:14.676Z,0.94
2022-12-05T04:01:31.843Z,0.74
2022-12-05T04:02:48.665Z,0.84
2022-12-05T04:04:05.708Z,1.43
2022-12-05T04:05:22.690Z,1.12
2022-12-05T04:06:39.691Z,1.29
2022-12-05T04:07:56.738Z,1.42
2022-12-05T04:09:16.979Z,1.29
2022-12-05T04:10:30.670Z,1.31
2022-12-05T04:11:47.662Z,1.53
2022-12-05T04:13:04.813Z,1.37
2022-12-05T04:14:21.667Z,0.89
2022-12-05T04:15:38.755Z,0.95
2022-12-05T04:16:55.714Z,1.21
2022-12-05T04:18:12.735Z,1.66
2022-12-05T04:19:29.709Z,1.21
2022-12-05T04:20:46.737Z,1.76
2022-12-05T04:22:03.698Z,0.98
2022-12-05T04:23:20.733Z,1.01
2022-12-05T04:24:38.072Z,1.11
2022-12-05T04:25:54.794Z,1.97
2022-12-05T04:27:11.777Z,1.08
2022-12-05T04:28:28.750Z,1.04
2022-12-05T04:29:45.693Z,0.76
2022-12-05T04:31:02.777Z,1.65
2022-12-05T04:32:19.685Z,0.76
2022-12-05T04:33:36.801Z,1.79
2022-12-05T04:34:53.737Z,0.82
2022-12-05T04:36:10.695Z,0.82
2022-12-05T04:37:27.712Z,1.77
2022-12-05T04:38:44.788Z,1.54
2022-12-05T04:40:01.767Z,1.05
2022-12-05T04:41:18.707Z,1.04
2022-12-05T04:42:36.236Z,0.83
2022-12-05T04:43:53.785Z,1.08
2022-12-05T04:45:10.771Z,1.11
2022-12-05T04:46:27.734Z,1.09
2022-12-05T04:47:44.725Z,0.85
2022-12-05T04:49:02.059Z,1.01
2022-12-05T04:50:18.788Z,1.16
2022-12-05T04:51:35.726Z,1.48
2022-12-05T04:52:52.776Z,1.74
2022-12-05T04:54:09.730Z,1.54
2022-12-05T04:55:26.797Z,1.04
2022-12-05T04:56:43.745Z,1.49
2022-12-05T04:58:00.721Z,1.4
2022-12-05T04:59:17.785Z,0.86
2022-12-05T05:00:34.799Z,1.11
2022-12-05T05:01:51.824Z,0.87
2022-12-05T05:03:08.815Z,0.81
2022-12-05T05:04:25.765Z,1.47
2022-12-05T05:05:42.763Z,0.83
2022-12-05T05:06:59.802Z,1.94
2022-12-05T05:08:16.774Z,0.91
2022-12-05T05:09:34.315Z,1.19
2022-12-05T05:10:51.740Z,0.8
2022-12-05T05:12:08.827Z,0.75
2022-12-05T05:13:26.007Z,1.1
2022-12-05T05:14:43.170Z,1.71
2022-12-05T05:15:59.790Z,1.86
2022-12-05T05:17:17.176Z,1.36
2022-12-05T05:18:33.796Z,1.32
2022-12-05T05:19:50.830Z,1.4
2022-12-05T05:21:07.765Z,1.15
2022-12-05T05:22:24.828Z,0.9
2022-12-05T05:23:41.785Z,0.55
2022-12-05T05:24:58.766Z,1.02
2022-12-05T05:26:15.831Z,0.46
2022-12-05T05:27:32.810Z,0.35
2022-12-05T05:28:49.804Z,0.52
2022-12-05T05:30:07.031Z,0.34
2022-12-05T05:31:23.913Z,0.57
2022-12-05T05:32:40.845Z,1.1
2022-12-05T05:33:57.794Z,0.8
2022-12-05T05:35:15.146Z,0.48
2022-12-05T05:36:31.856Z,0.6
2022-12-05T05:37:48.887Z,0.49
2022-12-05T05:39:05.873Z,1.18
2022-12-05T05:40:25.431Z,1.53
2022-12-05T05:41:42.831Z,0.61
2022-12-05T05:42:59.827Z,1.04
2022-12-05T05:44:17.128Z,1.71
2022-12-05T05:45:34.054Z,0.68
2022-12-05T05:46:50.885Z,1.19
2022-12-05T05:48:07.830Z,0.67
2022-12-05T05:49:24.883Z,1.29
2022-12-05T05:50:41.783Z,1.31
2022-12-05T05:51:58.846Z,1.22
2022-12-05T05:53:15.810Z,1.1
2022-12-05T05:54:32.804Z,0.38
2022-12-05T05:55:49.887Z,0.35
2022-12-05T05:57:06.896Z,0.64
2022-12-05T05:58:23.961Z,0.8
2022-12-05T05:59:40.812Z,0.75
2022-12-05T06:00:57.837Z,0.55
2022-12-05T06:02:14.833Z,0.98
2022-12-05T06:03:32.030Z,0.42
2022-12-05T06:04:48.835Z,0.69
2022-12-05T06:06:06.090Z,0.42
2022-12-05T06:07:22.940Z,0.38
2022-12-05T06:08:39.877Z,1
2022-12-05T06:09:57.248Z,1.14
2022-12-05T06:11:13.862Z,0.98
2022-12-05T06:12:30.888Z,0.92
2022-12-05T06:13:47.826Z,0.99
2022-12-05T06:15:04.963Z,0.74
2022-12-05T06:16:21.932Z,0.82
2022-12-05T06:17:39.017Z,1.37
2022-12-05T06:18:56.594Z,0.86
2022-12-05T06:20:14.279Z,1.19
2022-12-05T06:21:30.870Z,1.21
2022-12-05T06:22:47.858Z,0.67
2022-12-05T06:24:04.835Z,0.61
2022-12-05T06:25:21.846Z,0.26
2022-12-05T06:26:38.861Z,0.6
2022-12-05T06:27:55.875Z,0.31
2022-12-05T06:29:12.948Z,0.36
2022-12-05T06:30:29.924Z,0.31
2022-12-05T06:31:47.017Z,0.49
2022-12-05T06:33:03.953Z,0.42
2022-12-05T06:34:20.868Z,0.52
2022-12-05T06:35:37.993Z,0.84
2022-12-05T06:36:54.850Z,1.13
2022-12-05T06:38:11.895Z,1.14
2022-12-05T06:39:28.854Z,0.99
2022-12-05T06:40:45.946Z,0.55
2022-12-05T06:42:02.914Z,0.8
2022-12-05T06:43:19.946Z,0.32
2022-12-05T06:44:36.899Z,0.77
2022-12-05T06:45:53.906Z,0.59
2022-12-05T06:47:10.968Z,0.73
2022-12-05T06:48:27.858Z,0.57
2022-12-05T06:49:44.868Z,0.3
2022-12-05T06:51:02.106Z,0.54
2022-12-05T06:52:18.936Z,0.94
2022-12-05T06:53:35.901Z,0.56
2022-12-05T06:54:52.908Z,0.66
2022-12-05T06:56:09.878Z,0.39
2022-12-05T06:57:26.928Z,0.22
2022-12-05T06:58:43.882Z,0.53
2022-12-05T07:00:00.945Z,0.76
2022-12-05T07:01:17.946Z,0.49
2022-12-05T07:02:35.057Z,0.4
2022-12-05T07:03:51.896Z,0.45
2022-12-05T07:05:08.931Z,0.38
2022-12-05T07:06:26.105Z,0.66
2022-12-05T07:07:42.998Z,0.36
2022-12-05T07:08:59.913Z,0.29
2022-12-05T07:10:16.985Z,0.49
2022-12-05T07:11:33.946Z,0.43
2022-12-05T07:12:50.936Z,0.5
2022-12-05T07:14:14.773Z,0.21
2022-12-05T07:15:24.957Z,0.79
2022-12-05T07:16:42.049Z,0.25
2022-12-05T07:17:58.977Z,0.32
2022-12-05T07:19:15.905Z,0.45
2022-12-05T07:20:49.411Z,0.31
2022-12-05T07:21:49.934Z,0.7
2022-12-05T07:23:06.977Z,0.45
2022-12-05T07:24:23.922Z,0.46
2022-12-05T07:25:41.406Z,0.53
2022-12-05T07:26:57.973Z,0.38
2022-12-05T07:28:14.951Z,0.15
2022-12-05T07:29:31.911Z,0.27
2022-12-05T07:30:49.492Z,0.49
2022-12-05T07:32:07.034Z,0.22
2022-12-05T07:33:24.017Z,0.2
2022-12-05T07:34:40.953Z,0.43
2022-12-05T07:35:57.974Z,0.43
2022-12-05T07:37:15.521Z,0.43
2022-12-05T07:38:31.977Z,0.35
2022-12-05T07:39:49.553Z,0.43
2022-12-05T07:41:10.305Z,0.45
2022-12-05T07:42:23.949Z,0.39
2022-12-05T07:43:41.512Z,0.66
2022-12-05T07:44:59.370Z,0.46
2022-12-05T07:46:16.068Z,0.47
2022-12-05T07:47:33.421Z,0.3
2022-12-05T07:48:50.036Z,0.46
2022-12-05T07:50:07.116Z,0.41
2022-12-05T07:51:23.950Z,0.65
2022-12-05T07:52:41.261Z,0.44
2022-12-05T07:53:58.243Z,0.96
2022-12-05T07:55:15.470Z,1.06
2022-12-05T07:56:32.190Z,0.77
2022-12-05T07:57:49.096Z,1.32
2022-12-05T07:59:06.737Z,0.91
2022-12-05T08:00:24.002Z,0.49
2022-12-05T08:01:41.167Z,0.74
2022-12-05T08:02:58.085Z,0.65
2022-12-05T08:04:15.905Z,0.42
2022-12-05T08:05:32.022Z,0.82
2022-12-05T08:06:49.180Z,0.69
2022-12-05T08:08:06.912Z,0.3
2022-12-05T08:09:23.974Z,0.34
2022-12-05T08:10:41.093Z,0.76
2022-12-05T08:11:58.035Z,0.41
2022-12-05T08:13:14.992Z,0.5
2022-12-05T08:14:32.182Z,0.6
2022-12-05T08:15:49.275Z,0.5
2022-12-05T08:17:06.310Z,0.63
2022-12-05T08:18:27.154Z,0.81
2022-12-05T08:19:40.000Z,0.59
2022-12-05T08:20:57.041Z,0.55
2022-12-05T08:22:14.052Z,0.6
2022-12-05T08:23:30.991Z,0.47
2022-12-05T08:24:51.885Z,0.65
2022-12-05T08:26:05.034Z,0.19
2022-12-05T08:27:22.060Z,0.28
2022-12-05T08:28:39.034Z,1.19
2022-12-05T08:29:56.315Z,0.21
2022-12-05T08:31:13.413Z,0.81
2022-12-05T08:32:30.066Z,0.49
2022-12-05T08:33:47.457Z,0.6
2022-12-05T08:35:04.070Z,0.58
2022-12-05T08:36:21.023Z,0.67
2022-12-05T08:37:38.025Z,0.39
2022-12-05T08:38:55.417Z,0.6
2022-12-05T08:40:12.039Z,0.36
2022-12-05T08:41:29.053Z,0.31
2022-12-05T08:42:46.018Z,0.38
2022-12-05T08:44:03.258Z,0.29
2022-12-05T08:45:20.028Z,0.45
2022-12-05T08:46:37.104Z,0.24
2022-12-05T08:47:54.038Z,0.42
2022-12-05T08:49:11.053Z,0.2
2022-12-05T08:50:28.108Z,0.37
2022-12-05T08:51:45.101Z,0.19
2022-12-05T08:53:02.088Z,0.33
2022-12-05T08:54:19.041Z,0.38
2022-12-05T08:55:36.072Z,0.63
2022-12-05T08:56:53.442Z,0.45
2022-12-05T08:58:10.050Z,0.64
2022-12-05T08:59:27.115Z,0.21
2022-12-05T09:00:44.109Z,0.24
2022-12-05T09:02:01.054Z,0.17
2022-12-05T09:03:18.047Z,0.2
2022-12-05T09:04:35.034Z,0.3
2022-12-05T09:05:54.769Z,0.35
2022-12-05T09:07:09.047Z,0.28
2022-12-05T09:08:26.192Z,0.48
2022-12-05T09:09:43.109Z,0.3
2022-12-05T09:11:00.089Z,0.37
2022-12-05T09:12:17.752Z,0.52
2022-12-05T09:13:35.655Z,0.25
2022-12-05T09:14:53.057Z,0.42
2022-12-05T09:16:10.159Z,0.29
2022-12-05T09:17:27.098Z,0.29
2022-12-05T09:18:44.066Z,0.37
2022-12-05T09:20:01.064Z,0.55
2022-12-05T09:21:18.206Z,0.8
2022-12-05T09:22:35.090Z,0.62
2022-12-05T09:23:52.061Z,0.42
2022-12-05T09:25:09.759Z,0.59
2022-12-05T09:26:27.135Z,0.49
2022-12-05T09:27:44.088Z,0.52
2022-12-05T09:29:01.313Z,0.69
2022-12-05T09:30:18.301Z,0.42
2022-12-05T09:31:35.301Z,0.28
2022-12-05T09:32:52.093Z,0.44
2022-12-05T09:34:09.091Z,0.45
2022-12-05T09:35:26.103Z,0.48
2022-12-05T09:36:43.478Z,0.21
2022-12-05T09:38:00.479Z,0.42
2022-12-05T09:39:17.084Z,0.49
2022-12-05T09:40:34.093Z,0.44
2022-12-05T09:41:51.148Z,0.58
2022-12-05T09:43:08.123Z,0.55
2022-12-05T09:44:25.103Z,0.34
2022-12-05T09:45:42.147Z,0.53
2022-12-05T09:46:59.193Z,0.36
2022-12-05T09:48:16.174Z,0.72
2022-12-05T09:49:33.737Z,0.38
2022-12-05T09:50:51.157Z,0.42
2022-12-05T09:52:08.277Z,0.54
2022-12-05T09:53:26.295Z,0.41
2022-12-05T09:54:43.129Z,0.75
2022-12-05T09:56:00.124Z,0.66
2022-12-05T09:57:17.174Z,0.92
2022-12-05T09:58:34.139Z,0.54
2022-12-05T09:59:51.135Z,0.34
2022-12-05T10:01:08.372Z,0.39
2022-12-05T10:02:25.147Z,0.84
2022-12-05T10:03:42.224Z,0.75
2022-12-05T10:05:00.767Z,0.63
2022-12-05T10:06:16.117Z,0.5
2022-12-05T10:07:33.265Z,0.68
2022-12-05T10:08:50.168Z,0.81
2022-12-05T10:10:07.331Z,0.64
2022-12-05T10:11:24.141Z,0.28
2022-12-05T10:12:41.141Z,0.71
2022-12-05T10:13:58.171Z,0.94
2022-12-05T10:15:15.311Z,1.06
2022-12-05T10:16:32.252Z,0.72
2022-12-05T10:17:49.152Z,0.67
2022-12-05T10:19:06.190Z,0.7
2022-12-05T10:20:23.237Z,0.76
2022-12-05T10:21:40.439Z,0.7
2022-12-05T10:22:57.188Z,0.84
2022-12-05T10:24:14.181Z,0.74
2022-12-05T10:25:31.146Z,0.82
2022-12-05T10:26:48.211Z,1.4
2022-12-05T10:28:05.161Z,1.29
2022-12-05T10:29:22.162Z,1.12
2022-12-05T10:30:39.361Z,0.6
2022-12-05T10:31:56.153Z,1.12
2022-12-05T10:33:13.413Z,1.56
2022-12-05T10:34:30.170Z,1.54
2022-12-05T10:35:47.252Z,0.55
2022-12-05T10:37:04.168Z,0.82
2022-12-05T10:38:21.228Z,0.55
2022-12-05T10:39:38.244Z,0.62
2022-12-05T10:40:55.247Z,1.29
2022-12-05T10:42:12.231Z,0.89
2022-12-05T10:43:29.181Z,0.78
2022-12-05T10:44:46.167Z,0.45
2022-12-05T10:46:03.303Z,1.02
2022-12-05T10:47:20.713Z,0.88
2022-12-05T10:48:37.206Z,1.21
2022-12-05T10:49:54.203Z,1.08
2022-12-05T10:51:11.231Z,1.26
2022-12-05T10:52:28.185Z,1.12
2022-12-05T10:53:45.266Z,1.26
2022-12-05T10:55:02.352Z,1.23
2022-12-05T10:56:30.117Z,0.61
2022-12-05T10:57:36.221Z,0.45
2022-12-05T10:58:53.236Z,0.52
2022-12-05T11:00:10.415Z,0.89
2022-12-05T11:01:27.363Z,1.24
2022-12-05T11:02:44.404Z,0.87
2022-12-05T11:04:01.222Z,1.16
2022-12-05T11:05:18.277Z,0.76
2022-12-05T11:06:35.275Z,0.62
2022-12-05T11:07:52.434Z,0.69
2022-12-05T11:09:09.286Z,0.66
2022-12-05T11:10:27.071Z,0.68
2022-12-05T11:11:43.278Z,0.56
2022-12-05T11:13:00.441Z,0.74
2022-12-05T11:14:17.208Z,0.69
2022-12-05T11:15:34.279Z,0.49
2022-12-05T11:16:51.626Z,0.51
2022-12-05T11:18:08.362Z,0.92
2022-12-05T11:19:25.540Z,0.62
2022-12-05T11:20:42.209Z,0.72
2022-12-05T11:21:59.235Z,0.92
2022-12-05T11:23:16.281Z,0.81
2022-12-05T11:24:33.343Z,1.01
2022-12-05T11:25:53.094Z,0.81
2022-12-05T11:27:10.376Z,1.28
2022-12-05T11:28:27.329Z,0.5
2022-12-05T11:29:44.608Z,1.25
2022-12-05T11:31:01.535Z,1.08
2022-12-05T11:32:18.561Z,0.53
2022-12-05T11:33:35.299Z,1.03
2022-12-05T11:34:52.270Z,0.58
2022-12-05T11:36:09.244Z,0.41
2022-12-05T11:37:26.702Z,0.77
2022-12-05T11:38:43.243Z,0.73
2022-12-05T11:40:00.537Z,0.65
2022-12-05T11:41:17.393Z,0.76
2022-12-05T11:42:34.489Z,1.07
2022-12-05T11:43:51.256Z,0.54
2022-12-05T11:45:08.626Z,0.48
2022-12-05T11:46:26.942Z,0.75
2022-12-05T11:47:42.264Z,0.11
2022-12-05T11:48:59.274Z,0.65
2022-12-05T11:50:16.363Z,1.23
2022-12-05T11:51:33.252Z,0.47
2022-12-05T11:52:50.252Z,0.41
2022-12-05T11:54:07.418Z,0.66
2022-12-05T11:55:24.306Z,0.85
2022-12-05T11:56:41.312Z,1.31
2022-12-05T11:57:58.261Z,1.02
2022-12-05T11:59:15.350Z,0.94
2022-12-05T12:00:32.446Z,0.46
2022-12-05T12:01:49.484Z,0.68
2022-12-05T12:03:06.383Z,1.16
2022-12-05T12:04:23.333Z,0.79
2022-12-05T12:05:40.311Z,1.15
2022-12-05T12:06:57.658Z,0.65
2022-12-05T12:08:14.400Z,1.52
2022-12-05T12:09:32.073Z,0.94
2022-12-05T12:10:48.295Z,0.98
2022-12-05T12:12:05.374Z,0.72
2022-12-05T12:13:22.624Z,0.48
2022-12-05T12:14:39.320Z,0.71
2022-12-05T12:15:56.310Z,0.7
2022-12-05T12:17:13.403Z,0.78
2022-12-05T12:18:30.404Z,0.51
2022-12-05T12:19:49.097Z,0.42
2022-12-05T12:21:07.304Z,0.72
2022-12-05T12:22:24.404Z,0.94
2022-12-05T12:23:41.500Z,1.05
2022-12-05T12:24:59.746Z,0.84
2022-12-05T12:26:16.533Z,1.03
2022-12-05T12:27:34.702Z,1.02
2022-12-05T12:28:51.471Z,0.39
2022-12-05T12:30:08.400Z,0.61
2022-12-05T12:31:25.552Z,0.59
2022-12-05T12:32:42.805Z,1.29
2022-12-05T12:34:00.351Z,0.94
2022-12-05T12:35:17.544Z,1.2
2022-12-05T12:36:35.587Z,1.1
2022-12-05T12:37:52.449Z,0.92
2022-12-05T12:39:09.353Z,0.37
2022-12-05T12:40:26.334Z,0.86
2022-12-05T12:41:43.362Z,0.99
2022-12-05T12:43:00.554Z,1.17
2022-12-05T12:44:17.556Z,1.05
2022-12-05T12:45:34.326Z,0.63
2022-12-05T12:46:51.364Z,0.65
2022-12-05T12:48:08.380Z,0.62
2022-12-05T12:49:25.348Z,0.76
2022-12-05T12:50:43.890Z,0.59
2022-12-05T12:51:59.389Z,0.78
2022-12-05T12:53:16.335Z,0.77
2022-12-05T12:55:01.979Z,0.7
2022-12-05T12:55:50.400Z,0.57
2022-12-05T12:57:12.191Z,0.48
2022-12-05T12:58:24.375Z,0.92
2022-12-05T12:59:41.797Z,0.61
2022-12-05T13:00:58.793Z,0.35
2022-12-05T13:02:15.533Z,0.09
2022-12-05T13:03:32.372Z,0.37
2022-12-05T13:04:49.386Z,0
2022-12-05T13:06:06.385Z,0.27
2022-12-05T13:07:23.489Z,0.15
2022-12-05T13:08:40.413Z,0.29
2022-12-05T13:09:57.864Z,0.74
2022-12-05T13:11:14.562Z,0.3
2022-12-05T13:12:31.787Z,0.39
2022-12-05T13:13:48.477Z,0.59
2022-12-05T13:15:05.570Z,0.19
2022-12-05T13:16:22.452Z,0.18
2022-12-05T13:17:39.438Z,0.28
2022-12-05T13:18:56.382Z,0.21
2022-12-05T13:20:13.657Z,0.18
2022-12-05T13:21:30.481Z,0.41
2022-12-05T13:22:47.381Z,0.28
2022-12-05T13:24:04.414Z,0.34
2022-12-05T13:25:21.384Z,0.33
2022-12-05T13:26:38.533Z,0.49
2022-12-05T13:27:55.437Z,0.2
2022-12-05T13:29:12.440Z,0.38
2022-12-05T13:30:29.407Z,0.58
2022-12-05T13:31:46.442Z,0.29
2022-12-05T13:33:03.427Z,0.64
2022-12-05T13:34:20.457Z,0.67
2022-12-05T13:35:37.418Z,0.12
2022-12-05T13:36:54.414Z,0.36
2022-12-05T13:38:11.614Z,0
2022-12-05T13:39:28.418Z,0.44
2022-12-05T13:40:45.414Z,0.17
2022-12-05T13:42:02.515Z,0.56
2022-12-05T13:43:19.455Z,0.12
2022-12-05T13:44:36.451Z,0.34
2022-12-05T13:45:53.678Z,0.29
2022-12-05T13:47:10.409Z,0.39
2022-12-05T13:48:27.449Z,0.52
2022-12-05T13:49:44.633Z,0.28
2022-12-05T13:51:01.437Z,0.3
2022-12-05T13:52:18.424Z,0.36
2022-12-05T13:53:35.496Z,0.14
2022-12-05T13:54:52.467Z,0.33
2022-12-05T13:56:09.421Z,0.2
2022-12-05T13:57:26.428Z,0.44
2022-12-05T13:58:43.509Z,0.29
2022-12-05T14:00:01.008Z,0.21
2022-12-05T14:01:17.692Z,0.31
2022-12-05T14:02:34.447Z,0.22
2022-12-05T14:03:51.432Z,0.3
2022-12-05T14:05:08.681Z,0.2
2022-12-05T14:06:25.444Z,0.25
2022-12-05T14:07:42.652Z,0.33
2022-12-05T14:08:59.695Z,0.2
2022-12-05T14:10:16.504Z,0.46
2022-12-05T14:11:33.489Z,0.52
2022-12-05T14:12:50.453Z,0.51
2022-12-05T14:14:08.375Z,0.38
2022-12-05T14:15:25.513Z,0.64
2022-12-05T14:16:42.529Z,0.82
2022-12-05T14:18:01.474Z,0.83
2022-12-05T14:19:18.535Z,0.68
2022-12-05T14:20:35.546Z,0.27
2022-12-05T14:21:52.928Z,0.08
2022-12-05T14:23:10.473Z,0.66
2022-12-05T14:24:27.454Z,0.43
2022-12-05T14:25:56.029Z,0.61
2022-12-05T14:27:02.617Z,0.83
2022-12-05T14:28:19.476Z,0.6
2022-12-05T14:29:39.023Z,0.71
2022-12-05T14:30:55.531Z,0.57
2022-12-05T14:32:12.656Z,0.43
2022-12-05T14:33:29.873Z,0.13
2022-12-05T14:34:46.477Z,0.49
2022-12-05T14:36:03.552Z,0.36
2022-12-05T14:37:21.161Z,0.44
2022-12-05T14:38:38.517Z,0.68
2022-12-05T14:39:55.676Z,0.52
2022-12-05T14:41:13.171Z,0.65
2022-12-05T14:42:29.559Z,0.13
2022-12-05T14:43:47.472Z,0.42
2022-12-05T14:45:04.671Z,0.49
2022-12-05T14:46:21.572Z,1.05
2022-12-05T14:47:38.771Z,0.96
2022-12-05T14:48:55.552Z,0.86
2022-12-05T14:50:12.519Z,0.85
2022-12-05T14:51:29.552Z,0.66
2022-12-05T14:52:46.592Z,0.69
2022-12-05T14:54:03.574Z,0.59
2022-12-05T14:55:25.210Z,0.84
2022-12-05T14:56:37.600Z,0.83
2022-12-05T14:57:54.545Z,0.81
2022-12-05T14:59:11.513Z,0.59
2022-12-05T15:00:28.626Z,0.62
2022-12-05T15:01:45.594Z,0.17
2022-12-05T15:03:02.730Z,0.52
2022-12-05T15:04:19.567Z,0.79
2022-12-05T15:05:36.505Z,0.87
2022-12-05T15:06:54.268Z,0.82
2022-12-05T15:08:11.697Z,0.77
2022-12-05T15:09:36.816Z,0.86
2022-12-05T15:10:45.937Z,1.19
2022-12-05T15:12:07.744Z,0.63
2022-12-05T15:13:19.772Z,0.61
2022-12-05T15:14:36.552Z,0.66
2022-12-05T15:15:54.235Z,0.5
2022-12-05T15:17:11.713Z,0.83
2022-12-05T15:18:28.543Z,0.63
2022-12-05T15:19:45.521Z,0.74
2022-12-05T15:21:03.238Z,0.93
2022-12-05T15:22:20.559Z,0.49
2022-12-05T15:23:37.654Z,0.47
2022-12-05T15:24:55.360Z,0.38
2022-12-05T15:26:38.288Z,0.62
2022-12-05T15:27:28.624Z,0.58
2022-12-05T15:28:45.926Z,0.22
2022-12-05T15:30:02.603Z,0.11
2022-12-05T15:31:21.298Z,0.67
2022-12-05T15:32:38.811Z,0.77
2022-12-05T15:33:55.649Z,1.02
2022-12-05T15:35:12.790Z,0.68
2022-12-05T15:36:29.796Z,0.75
2022-12-05T15:37:46.601Z,0.95
2022-12-05T15:39:04.392Z,0.55
2022-12-05T15:40:21.666Z,0.39
2022-12-05T15:41:38.652Z,0.34
2022-12-05T15:42:56.375Z,0.68
2022-12-05T15:44:13.580Z,0.54
2022-12-05T15:45:30.632Z,0.88
2022-12-05T15:46:47.715Z,0.76
2022-12-05T15:48:04.628Z,0.4
2022-12-05T15:49:21.608Z,0.43
2022-12-05T15:50:39.065Z,0.56
2022-12-05T15:51:55.585Z,0.48
2022-12-05T15:53:12.617Z,0.2
2022-12-05T15:54:29.613Z,0.56
2022-12-05T15:55:46.607Z,0.26
2022-12-05T15:57:03.613Z,0.57
2022-12-05T15:58:20.633Z,0.92
2022-12-05T15:59:38.055Z,0.78
2022-12-05T16:00:54.703Z,0.65
2022-12-05T16:02:11.674Z,0.61
2022-12-05T16:03:28.659Z,0.49
2022-12-05T16:04:45.613Z,0.54
2022-12-05T16:06:02.824Z,0.77
2022-12-05T16:07:19.594Z,0.57
2022-12-05T16:08:36.663Z,0.54
2022-12-05T16:09:53.626Z,0.31
2022-12-05T16:11:10.610Z,0.65
2022-12-05T16:12:27.653Z,0.52
2022-12-05T16:13:44.614Z,0.56
2022-12-05T16:15:01.805Z,0.5
2022-12-05T16:16:18.687Z,0.55
2022-12-05T16:17:35.718Z,0.64
2022-12-05T16:18:52.680Z,0.7
2022-12-05T16:20:09.719Z,0.6
2022-12-05T16:21:26.616Z,0.48
2022-12-05T16:22:43.687Z,0.38
2022-12-05T16:24:00.621Z,0.61
2022-12-05T16:25:17.676Z,0.31
2022-12-05T16:26:34.745Z,0.39
2022-12-05T16:27:51.633Z,0.4
2022-12-05T16:29:08.647Z,0.35
2022-12-05T16:30:25.712Z,0.59
2022-12-05T16:31:43.193Z,0.49
2022-12-05T16:32:59.680Z,0.43
2022-12-05T16:34:16.648Z,0.53
2022-12-05T16:35:33.765Z,0.61
2022-12-05T16:36:50.626Z,0.36
2022-12-05T16:38:07.699Z,0.27
2022-12-05T16:39:24.635Z,0.24
2022-12-05T16:40:41.722Z,0.48
2022-12-05T16:41:58.970Z,0.19
2022-12-05T16:43:15.779Z,0.52
2022-12-05T16:44:32.718Z,0.46
2022-12-05T16:45:49.727Z,0.3
2022-12-05T16:47:06.695Z,0.15
2022-12-05T16:48:23.843Z,0.12
2022-12-05T16:49:45.942Z,0.47
2022-12-05T16:50:57.713Z,0.42
2022-12-05T16:52:15.218Z,0.37
2022-12-05T16:53:32.721Z,0.37
2022-12-05T16:54:49.717Z,0.47
2022-12-05T16:56:06.698Z,0.42
2022-12-05T16:57:23.691Z,0.48
2022-12-05T16:58:40.679Z,0.27
2022-12-05T16:59:57.696Z,0
2022-12-05T17:01:14.768Z,0.14
2022-12-05T17:02:31.842Z,0.26
2022-12-05T17:03:48.824Z,0.35
2022-12-05T17:05:05.685Z,0.12
2022-12-05T17:06:22.840Z,0.13
2022-12-05T17:07:39.800Z,0
2022-12-05T17:08:56.725Z,0.23